createdAt,value
2023-04-25T00:03:34.228Z,970.87
2023-04-25T00:15:34.336Z,970.91
2023-04-25T00:27:34.722Z,970.93
2023-04-25T00:39:35.230Z,970.87
2023-04-25T00:51:35.618Z,970.86
2023-04-25T01:03:36.213Z,970.94
2023-04-25T01:15:36.600Z,970.91
2023-04-25T01:27:37.027Z,970.94
2023-04-25T01:39:37.444Z,970.90
2023-04-25T01:51:37.898Z,970.85
2023-04-25T02:15:38.903Z,970.95
2023-04-25T02:27:39.268Z,970.99
2023-04-25T02:39:39.687Z,971.03
2023-04-25T02:51:40.201Z,971.03
2023-04-25T03:03:40.695Z,970.98
2023-04-25T03:15:41.076Z,970.99
2023-04-25T03:27:41.534Z,970.95
2023-04-25T03:39:41.998Z,971.03
2023-04-25T03:51:42.464Z,971.12
2023-04-25T04:03:43.028Z,971.26
2023-04-25T04:15:43.356Z,971.37
2023-04-25T04:27:43.794Z,971.47
2023-04-25T04:39:44.281Z,971.52
2023-04-25T04:51:44.683Z,971.61
2023-04-25T05:03:45.288Z,971.58
2023-04-25T05:15:45.616Z,971.47
2023-04-25T05:27:46.098Z,971.47
2023-04-25T05:39:46.501Z,971.42
2023-04-25T05:51:46.941Z,971.27
2023-04-25T06:03:47.779Z,971.04
2023-04-25T06:15:47.916Z,971.10
2023-04-25T06:27:48.329Z,971.22
2023-04-25T06:39:48.779Z,970.99
2023-04-25T06:51:49.222Z,970.82
2023-04-25T07:03:49.868Z,970.69
2023-04-25T07:15:50.117Z,970.49
2023-04-25T07:27:50.587Z,970.30
2023-04-25T07:39:51.029Z,970.30
2023-04-25T07:51:51.489Z,970.14
2023-04-25T08:03:52.074Z,969.95
2023-04-25T08:15:52.885Z,969.97
2023-04-25T08:27:53.009Z,970.04
2023-04-25T08:39:53.407Z,970.11
2023-04-25T08:51:53.890Z,970.21
2023-04-25T09:03:54.280Z,970.21
2023-04-25T09:15:54.636Z,970.25
2023-04-25T09:27:55.145Z,970.11
2023-04-25T09:39:55.583Z,970.13
2023-04-25T09:51:56.072Z,970.18
2023-04-25T10:03:56.619Z,969.98
2023-04-25T10:15:56.960Z,970.09
2023-04-25T10:27:57.407Z,969.94
2023-04-25T10:39:57.830Z,969.85
2023-04-25T10:51:58.280Z,969.73
2023-04-25T11:03:58.893Z,969.77
2023-04-25T11:16:07.411Z,969.60
2023-04-25T11:27:59.684Z,969.76
2023-04-25T11:40:00.121Z,969.73
2023-04-25T11:52:00.581Z,969.57
2023-04-25T12:04:01.184Z,969.51
2023-04-25T12:16:01.545Z,969.41
2023-04-25T12:28:01.916Z,969.31
2023-04-25T12:40:02.406Z,969.38
2023-04-25T12:52:02.818Z,969.39
2023-04-25T13:04:03.546Z,969.49
2023-04-25T13:16:03.788Z,969.85
2023-04-25T13:28:04.201Z,969.94
2023-04-25T13:40:04.624Z,969.84
2023-04-25T13:52:05.095Z,969.94
2023-04-25T14:04:05.643Z,969.99
2023-04-25T14:16:06.054Z,969.88
2023-04-25T14:28:06.443Z,969.74
2023-04-25T14:40:06.909Z,969.79
2023-04-25T14:52:07.379Z,969.63
2023-04-25T15:04:08.076Z,969.71
2023-04-25T15:16:08.348Z,969.91
2023-04-25T15:28:08.735Z,969.94
2023-04-25T15:40:09.191Z,969.95
2023-04-25T15:52:09.673Z,969.86
2023-04-25T16:04:10.314Z,970.23
2023-04-25T16:16:10.602Z,970.17
2023-04-25T16:28:11.010Z,970.30
2023-04-25T16:40:11.523Z,970.27
2023-04-25T16:52:11.914Z,970.37
2023-04-25T17:04:12.416Z,970.39
2023-04-25T17:16:12.892Z,970.58
2023-04-25T17:28:13.293Z,970.58
2023-04-25T17:40:13.720Z,971.00
2023-04-25T17:52:14.202Z,971.19
2023-04-25T18:04:14.677Z,971.51
2023-04-25T18:16:15.134Z,971.53
2023-04-25T18:28:15.542Z,971.86
2023-04-25T18:40:16.039Z,972.04
2023-04-25T18:52:16.460Z,972.40
2023-04-25T19:04:16.972Z,972.33
2023-04-25T19:16:17.435Z,972.34
2023-04-25T19:28:17.853Z,972.57
2023-04-25T19:40:18.262Z,972.72
2023-04-25T19:52:18.745Z,972.86
2023-04-25T20:04:19.205Z,973.24
2023-04-25T20:16:19.865Z,973.21
2023-04-25T20:28:20.075Z,973.13
2023-04-25T20:40:20.530Z,973.10
2023-04-25T20:52:21.001Z,973.35
2023-04-25T21:04:21.524Z,973.46
2023-04-25T21:16:21.894Z,973.62
2023-04-25T21:28:22.362Z,973.71
2023-04-25T21:40:22.805Z,973.88
2023-04-25T21:52:23.256Z,973.86
2023-04-25T22:04:23.830Z,973.94
2023-04-25T22:16:24.221Z,973.95
2023-04-25T22:28:24.615Z,974.10
2023-04-25T22:40:25.076Z,974.27
2023-04-25T22:52:25.525Z,974.31
2023-04-25T23:04:26.135Z,974.57
2023-04-25T23:16:26.450Z,974.64
2023-04-25T23:28:26.860Z,974.61
2023-04-25T23:40:27.302Z,974.90
2023-04-25T23:52:27.778Z,974.90
